sensor_id;sensor_type;location;lat;lon;timestamp;P1;durP1;ratioP1;P2;durP2;ratioP2
1751;SDS011;873;47.696;8.068;2023-03-01T00:00:18;29.17;;;14.47;;
1751;SDS011;873;47.696;8.068;2023-03-01T00:02:44;26.23;;;16.03;;
1751;SDS011;873;47.696;8.068;2023-03-01T00:05:09;26.77;;;14.67;;
1751;SDS011;873;47.696;8.068;2023-03-01T00:07:35;21.27;;;13.07;;
1751;SDS011;873;47.696;8.068;2023-03-01T00:10:01;24.47;;;15.30;;
1751;SDS011;873;47.696;8.068;2023-03-01T00:12:27;25.83;;;15.75;;
1751;SDS011;873;47.696;8.068;2023-03-01T00:14:52;26.50;;;15.77;;
1751;SDS011;873;47.696;8.068;2023-03-01T00:17:18;31.30;;;16.67;;
1751;SDS011;873;47.696;8.068;2023-03-01T00:19:44;28.73;;;14.67;;
1751;SDS011;873;47.696;8.068;2023-03-01T00:22:09;25.53;;;14.63;;
1751;SDS011;873;47.696;8.068;2023-03-01T00:24:35;26.53;;;15.23;;
1751;SDS011;873;47.696;8.068;2023-03-01T00:27:01;29.47;;;16.43;;
1751;SDS011;873;47.696;8.068;2023-03-01T00:29:26;27.60;;;15.45;;
1751;SDS011;873;47.696;8.068;2023-03-01T00:31:52;29.87;;;15.93;;
1751;SDS011;873;47.696;8.068;2023-03-01T00:34:17;26.83;;;15.87;;
1751;SDS011;873;47.696;8.068;2023-03-01T00:36:43;26.47;;;15.20;;
1751;SDS011;873;47.696;8.068;2023-03-01T00:39:11;27.13;;;14.47;;
1751;SDS011;873;47.696;8.068;2023-03-01T00:41:38;29.25;;;14.82;;
1751;SDS011;873;47.696;8.068;2023-03-01T00:44:05;29.30;;;15.55;;
1751;SDS011;873;47.696;8.068;2023-03-01T00:46:30;30.13;;;16.03;;
1751;SDS011;873;47.696;8.068;2023-03-01T00:48:56;30.53;;;16.93;;
1751;SDS011;873;47.696;8.068;2023-03-01T00:51:23;27.87;;;14.83;;
1751;SDS011;873;47.696;8.068;2023-03-01T00:53:51;27.05;;;15.38;;
1751;SDS011;873;47.696;8.068;2023-03-01T00:56:18;28.55;;;16.50;;
1751;SDS011;873;47.696;8.068;2023-03-01T00:58:44;29.75;;;15.50;;
1751;SDS011;873;47.696;8.068;2023-03-01T01:01:11;30.27;;;15.33;;
1751;SDS011;873;47.696;8.068;2023-03-01T01:03:51;28.98;;;16.80;;
1751;SDS011;873;47.696;8.068;2023-03-01T01:06:20;33.55;;;17.13;;
1751;SDS011;873;47.696;8.068;2023-03-01T01:08:51;30.40;;;17.15;;
1751;SDS011;873;47.696;8.068;2023-03-01T01:11:18;31.48;;;17.23;;
1751;SDS011;873;47.696;8.068;2023-03-01T01:13:44;29.13;;;15.73;;
1751;SDS011;873;47.696;8.068;2023-03-01T01:16:10;30.63;;;17.38;;
1751;SDS011;873;47.696;8.068;2023-03-01T01:18:36;31.20;;;17.13;;
1751;SDS011;873;47.696;8.068;2023-03-01T01:21:06;31.87;;;16.27;;
1751;SDS011;873;47.696;8.068;2023-03-01T01:23:33;33.13;;;17.95;;
1751;SDS011;873;47.696;8.068;2023-03-01T01:26:07;30.57;;;16.53;;
1751;SDS011;873;47.696;8.068;2023-03-01T01:28:33;32.40;;;17.38;;
1751;SDS011;873;47.696;8.068;2023-03-01T01:30:59;33.70;;;17.13;;
1751;SDS011;873;47.696;8.068;2023-03-01T01:33:24;35.70;;;18.93;;
1751;SDS011;873;47.696;8.068;2023-03-01T01:35:50;29.30;;;15.90;;
1751;SDS011;873;47.696;8.068;2023-03-01T01:38:16;36.03;;;17.80;;
1751;SDS011;873;47.696;8.068;2023-03-01T01:40:43;32.43;;;18.00;;
1751;SDS011;873;47.696;8.068;2023-03-01T01:43:16;31.88;;;16.98;;
1751;SDS011;873;47.696;8.068;2023-03-01T01:45:44;32.22;;;17.05;;
1751;SDS011;873;47.696;8.068;2023-03-01T01:48:10;33.83;;;17.37;;
1751;SDS011;873;47.696;8.068;2023-03-01T01:50:39;29.70;;;17.27;;
1751;SDS011;873;47.696;8.068;2023-03-01T01:53:07;32.67;;;16.77;;
1751;SDS011;873;47.696;8.068;2023-03-01T01:55:35;31.35;;;17.02;;
1751;SDS011;873;47.696;8.068;2023-03-01T01:58:03;31.65;;;16.42;;
1751;SDS011;873;47.696;8.068;2023-03-01T02:00:30;30.42;;;17.65;;
1751;SDS011;873;47.696;8.068;2023-03-01T02:02:59;31.47;;;16.40;;
1751;SDS011;873;47.696;8.068;2023-03-01T02:08:05;32.53;;;18.13;;
1751;SDS011;873;47.696;8.068;2023-03-01T02:10:32;35.13;;;17.00;;
1751;SDS011;873;47.696;8.068;2023-03-01T02:12:58;33.03;;;17.27;;
1751;SDS011;873;47.696;8.068;2023-03-01T02:15:25;31.08;;;16.98;;
1751;SDS011;873;47.696;8.068;2023-03-01T02:17:51;31.13;;;17.98;;
1751;SDS011;873;47.696;8.068;2023-03-01T02:20:27;31.98;;;17.60;;
1751;SDS011;873;47.696;8.068;2023-03-01T02:23:14;32.13;;;16.83;;
1751;SDS011;873;47.696;8.068;2023-03-01T02:30:53;30.20;;;16.75;;
1751;SDS011;873;47.696;8.068;2023-03-01T02:33:39;33.42;;;17.50;;
1751;SDS011;873;47.696;8.068;2023-03-01T02:36:07;32.03;;;16.83;;
1751;SDS011;873;47.696;8.068;2023-03-01T02:38:36;27.75;;;15.82;;
1751;SDS011;873;47.696;8.068;2023-03-01T02:41:02;35.77;;;18.30;;
1751;SDS011;873;47.696;8.068;2023-03-01T02:43:29;34.33;;;17.00;;
1751;SDS011;873;47.696;8.068;2023-03-01T02:45:58;29.42;;;16.40;;
1751;SDS011;873;47.696;8.068;2023-03-01T02:48:38;33.97;;;16.88;;
1751;SDS011;873;47.696;8.068;2023-03-01T02:51:11;31.20;;;16.55;;
1751;SDS011;873;47.696;8.068;2023-03-01T02:54:07;31.13;;;15.88;;
1751;SDS011;873;47.696;8.068;2023-03-01T02:56:44;28.60;;;15.88;;
1751;SDS011;873;47.696;8.068;2023-03-01T02:59:13;32.30;;;16.42;;
1751;SDS011;873;47.696;8.068;2023-03-01T03:01:39;30.63;;;17.37;;
1751;SDS011;873;47.696;8.068;2023-03-01T03:04:05;30.80;;;17.83;;
1751;SDS011;873;47.696;8.068;2023-03-01T03:06:32;33.67;;;17.75;;
1751;SDS011;873;47.696;8.068;2023-03-01T03:08:58;33.47;;;17.17;;
1751;SDS011;873;47.696;8.068;2023-03-01T03:11:24;34.58;;;16.17;;
1751;SDS011;873;47.696;8.068;2023-03-01T03:13:50;30.37;;;15.67;;
1751;SDS011;873;47.696;8.068;2023-03-01T03:16:17;35.30;;;17.42;;
1751;SDS011;873;47.696;8.068;2023-03-01T03:18:42;31.03;;;16.80;;
1751;SDS011;873;47.696;8.068;2023-03-01T03:21:08;33.83;;;17.57;;
1751;SDS011;873;47.696;8.068;2023-03-01T03:23:35;33.47;;;17.40;;
1751;SDS011;873;47.696;8.068;2023-03-01T03:26:01;30.33;;;16.60;;
1751;SDS011;873;47.696;8.068;2023-03-01T03:28:29;29.83;;;15.70;;
1751;SDS011;873;47.696;8.068;2023-03-01T03:30:57;30.75;;;15.90;;
1751;SDS011;873;47.696;8.068;2023-03-01T03:33:23;30.10;;;16.17;;
1751;SDS011;873;47.696;8.068;2023-03-01T03:35:49;31.13;;;17.57;;
1751;SDS011;873;47.696;8.068;2023-03-01T03:38:16;36.55;;;18.05;;
1751;SDS011;873;47.696;8.068;2023-03-01T03:40:46;34.22;;;17.10;;
1751;SDS011;873;47.696;8.068;2023-03-01T03:43:14;34.88;;;17.27;;
1751;SDS011;873;47.696;8.068;2023-03-01T03:45:43;38.22;;;18.88;;
1751;SDS011;873;47.696;8.068;2023-03-01T03:48:10;35.90;;;16.95;;
1751;SDS011;873;47.696;8.068;2023-03-01T03:50:36;30.77;;;16.23;;
1751;SDS011;873;47.696;8.068;2023-03-01T03:53:04;36.92;;;17.02;;
1751;SDS011;873;47.696;8.068;2023-03-01T03:55:33;32.63;;;16.38;;
1751;SDS011;873;47.696;8.068;2023-03-01T03:58:00;30.33;;;15.57;;
1751;SDS011;873;47.696;8.068;2023-03-01T04:00:32;31.55;;;16.92;;
1751;SDS011;873;47.696;8.068;2023-03-01T04:02:58;32.03;;;15.82;;
1751;SDS011;873;47.696;8.068;2023-03-01T04:05:24;31.90;;;15.40;;
1751;SDS011;873;47.696;8.068;2023-03-01T04:07:49;31.57;;;17.07;;
1751;SDS011;873;47.696;8.068;2023-03-01T04:10:26;33.72;;;16.80;;
1751;SDS011;873;47.696;8.068;2023-03-01T04:12:53;31.45;;;16.58;;
1751;SDS011;873;47.696;8.068;2023-03-01T04:15:21;34.30;;;17.90;;
1751;SDS011;873;47.696;8.068;2023-03-01T04:17:49;36.60;;;17.25;;
1751;SDS011;873;47.696;8.068;2023-03-01T04:20:17;39.13;;;17.70;;
1751;SDS011;873;47.696;8.068;2023-03-01T04:22:53;31.35;;;15.85;;
1751;SDS011;873;47.696;8.068;2023-03-01T04:25:24;35.25;;;18.05;;
1751;SDS011;873;47.696;8.068;2023-03-01T04:27:49;34.33;;;17.37;;
1751;SDS011;873;47.696;8.068;2023-03-01T04:30:15;33.17;;;16.17;;
1751;SDS011;873;47.696;8.068;2023-03-01T04:32:41;34.97;;;17.17;;
1751;SDS011;873;47.696;8.068;2023-03-01T04:35:06;35.90;;;17.77;;
1751;SDS011;873;47.696;8.068;2023-03-01T04:37:32;34.60;;;18.20;;
1751;SDS011;873;47.696;8.068;2023-03-01T04:39:58;34.20;;;17.50;;
1751;SDS011;873;47.696;8.068;2023-03-01T04:42:23;38.37;;;17.00;;
1751;SDS011;873;47.696;8.068;2023-03-01T04:44:49;33.37;;;18.37;;
1751;SDS011;873;47.696;8.068;2023-03-01T04:47:16;38.33;;;18.13;;
1751;SDS011;873;47.696;8.068;2023-03-01T04:49:42;36.27;;;17.53;;
1751;SDS011;873;47.696;8.068;2023-03-01T04:52:07;37.20;;;18.13;;
1751;SDS011;873;47.696;8.068;2023-03-01T04:54:34;38.45;;;17.50;;
1751;SDS011;873;47.696;8.068;2023-03-01T04:57:00;36.58;;;17.13;;
1751;SDS011;873;47.696;8.068;2023-03-01T04:59:27;43.67;;;19.17;;
1751;SDS011;873;47.696;8.068;2023-03-01T05:01:52;36.90;;;16.83;;
1751;SDS011;873;47.696;8.068;2023-03-01T05:04:23;39.78;;;18.30;;
1751;SDS011;873;47.696;8.068;2023-03-01T05:06:49;40.28;;;18.63;;
1751;SDS011;873;47.696;8.068;2023-03-01T05:09:15;32.47;;;16.50;;
1751;SDS011;873;47.696;8.068;2023-03-01T05:11:40;40.77;;;18.17;;
1751;SDS011;873;47.696;8.068;2023-03-01T05:14:06;34.93;;;17.40;;
1751;SDS011;873;47.696;8.068;2023-03-01T05:16:33;36.30;;;17.75;;
1751;SDS011;873;47.696;8.068;2023-03-01T05:18:59;34.28;;;16.45;;
1751;SDS011;873;47.696;8.068;2023-03-01T05:21:24;37.70;;;17.30;;
1751;SDS011;873;47.696;8.068;2023-03-01T05:23:50;35.33;;;16.43;;
1751;SDS011;873;47.696;8.068;2023-03-01T05:26:17;33.33;;;18.03;;
1751;SDS011;873;47.696;8.068;2023-03-01T05:28:47;38.67;;;19.13;;
1751;SDS011;873;47.696;8.068;2023-03-01T05:31:13;40.03;;;18.20;;
1751;SDS011;873;47.696;8.068;2023-03-01T05:33:39;35.47;;;17.20;;
1751;SDS011;873;47.696;8.068;2023-03-01T05:36:06;40.58;;;20.08;;
1751;SDS011;873;47.696;8.068;2023-03-01T05:38:32;35.53;;;18.75;;
1751;SDS011;873;47.696;8.068;2023-03-01T05:40:58;36.13;;;18.80;;
1751;SDS011;873;47.696;8.068;2023-03-01T05:43:24;42.00;;;19.60;;
1751;SDS011;873;47.696;8.068;2023-03-01T05:45:49;36.67;;;17.97;;
1751;SDS011;873;47.696;8.068;2023-03-01T05:48:15;34.57;;;17.27;;
1751;SDS011;873;47.696;8.068;2023-03-01T05:50:41;35.17;;;18.10;;
1751;SDS011;873;47.696;8.068;2023-03-01T05:53:13;38.05;;;19.50;;
1751;SDS011;873;47.696;8.068;2023-03-01T05:55:44;40.90;;;19.30;;
1751;SDS011;873;47.696;8.068;2023-03-01T05:58:13;33.75;;;17.48;;
1751;SDS011;873;47.696;8.068;2023-03-01T06:00:41;33.78;;;18.95;;
1751;SDS011;873;47.696;8.068;2023-03-01T06:03:09;39.58;;;17.95;;
1751;SDS011;873;47.696;8.068;2023-03-01T06:05:35;35.15;;;17.85;;
1751;SDS011;873;47.696;8.068;2023-03-01T06:08:01;34.20;;;16.90;;
1751;SDS011;873;47.696;8.068;2023-03-01T06:10:27;36.30;;;17.70;;
1751;SDS011;873;47.696;8.068;2023-03-01T06:12:53;33.92;;;16.08;;
1751;SDS011;873;47.696;8.068;2023-03-01T06:15:19;35.63;;;18.17;;
1751;SDS011;873;47.696;8.068;2023-03-01T06:17:45;38.50;;;19.10;;
1751;SDS011;873;47.696;8.068;2023-03-01T06:22:47;37.83;;;20.00;;
1751;SDS011;873;47.696;8.068;2023-03-01T06:25:15;36.53;;;18.67;;
1751;SDS011;873;47.696;8.068;2023-03-01T06:27:43;36.13;;;18.45;;
1751;SDS011;873;47.696;8.068;2023-03-01T06:30:10;31.80;;;15.83;;
1751;SDS011;873;47.696;8.068;2023-03-01T06:32:37;36.05;;;18.50;;
1751;SDS011;873;47.696;8.068;2023-03-01T06:35:03;35.90;;;16.83;;
1751;SDS011;873;47.696;8.068;2023-03-01T06:37:29;37.78;;;19.52;;
1751;SDS011;873;47.696;8.068;2023-03-01T06:39:55;33.87;;;16.80;;
1751;SDS011;873;47.696;8.068;2023-03-01T06:42:21;35.20;;;17.90;;
1751;SDS011;873;47.696;8.068;2023-03-01T06:44:46;33.80;;;16.53;;
1751;SDS011;873;47.696;8.068;2023-03-01T06:47:12;33.60;;;17.40;;
1751;SDS011;873;47.696;8.068;2023-03-01T06:49:37;34.80;;;17.40;;
1751;SDS011;873;47.696;8.068;2023-03-01T06:52:03;35.13;;;18.80;;
1751;SDS011;873;47.696;8.068;2023-03-01T06:54:28;34.47;;;18.23;;
1751;SDS011;873;47.696;8.068;2023-03-01T06:56:55;39.63;;;18.10;;
1751;SDS011;873;47.696;8.068;2023-03-01T06:59:20;39.33;;;19.10;;
1751;SDS011;873;47.696;8.068;2023-03-01T07:01:46;34.17;;;16.93;;
1751;SDS011;873;47.696;8.068;2023-03-01T07:04:12;34.80;;;18.33;;
1751;SDS011;873;47.696;8.068;2023-03-01T07:06:38;33.33;;;17.60;;
1751;SDS011;873;47.696;8.068;2023-03-01T07:09:04;33.40;;;17.33;;
1751;SDS011;873;47.696;8.068;2023-03-01T07:11:29;34.17;;;18.53;;
1751;SDS011;873;47.696;8.068;2023-03-01T07:13:55;38.00;;;18.77;;
1751;SDS011;873;47.696;8.068;2023-03-01T07:16:21;34.23;;;18.23;;
1751;SDS011;873;47.696;8.068;2023-03-01T07:18:46;34.20;;;17.80;;
1751;SDS011;873;47.696;8.068;2023-03-01T07:21:12;36.60;;;18.50;;
1751;SDS011;873;47.696;8.068;2023-03-01T07:23:39;32.60;;;17.98;;
1751;SDS011;873;47.696;8.068;2023-03-01T07:26:05;38.20;;;19.77;;
1751;SDS011;873;47.696;8.068;2023-03-01T07:28:30;35.17;;;17.57;;
1751;SDS011;873;47.696;8.068;2023-03-01T07:31:01;34.70;;;17.13;;
1751;SDS011;873;47.696;8.068;2023-03-01T07:33:27;36.20;;;18.00;;
1751;SDS011;873;47.696;8.068;2023-03-01T07:35:55;38.03;;;19.30;;
1751;SDS011;873;47.696;8.068;2023-03-01T07:38:22;32.67;;;17.15;;
1751;SDS011;873;47.696;8.068;2023-03-01T07:40:48;34.83;;;18.23;;
1751;SDS011;873;47.696;8.068;2023-03-01T07:43:14;37.53;;;17.50;;
1751;SDS011;873;47.696;8.068;2023-03-01T07:45:39;33.23;;;16.97;;
1751;SDS011;873;47.696;8.068;2023-03-01T07:48:05;29.40;;;15.73;;
1751;SDS011;873;47.696;8.068;2023-03-01T07:50:30;36.33;;;17.70;;
1751;SDS011;873;47.696;8.068;2023-03-01T07:52:56;33.03;;;17.07;;
1751;SDS011;873;47.696;8.068;2023-03-01T07:55:21;38.33;;;18.73;;
1751;SDS011;873;47.696;8.068;2023-03-01T07:57:47;35.10;;;17.57;;
1751;SDS011;873;47.696;8.068;2023-03-01T08:00:12;33.33;;;17.33;;
1751;SDS011;873;47.696;8.068;2023-03-01T08:02:38;33.97;;;18.33;;
1751;SDS011;873;47.696;8.068;2023-03-01T08:05:05;36.92;;;18.33;;
1751;SDS011;873;47.696;8.068;2023-03-01T08:07:31;34.80;;;18.13;;
1751;SDS011;873;47.696;8.068;2023-03-01T08:09:56;31.73;;;16.87;;
1751;SDS011;873;47.696;8.068;2023-03-01T08:12:22;35.20;;;18.60;;
1751;SDS011;873;47.696;8.068;2023-03-01T08:14:47;34.60;;;17.63;;
1751;SDS011;873;47.696;8.068;2023-03-01T08:17:13;38.13;;;19.37;;
1751;SDS011;873;47.696;8.068;2023-03-01T08:19:39;33.47;;;18.48;;
1751;SDS011;873;47.696;8.068;2023-03-01T08:22:05;33.10;;;18.40;;
1751;SDS011;873;47.696;8.068;2023-03-01T08:24:30;34.57;;;19.13;;
1751;SDS011;873;47.696;8.068;2023-03-01T08:26:56;35.57;;;17.83;;
1751;SDS011;873;47.696;8.068;2023-03-01T08:29:22;33.50;;;16.93;;
1751;SDS011;873;47.696;8.068;2023-03-01T08:31:49;40.22;;;20.15;;
1751;SDS011;873;47.696;8.068;2023-03-01T08:34:16;35.45;;;18.33;;
1751;SDS011;873;47.696;8.068;2023-03-01T08:36:42;39.78;;;19.58;;
1751;SDS011;873;47.696;8.068;2023-03-01T08:39:10;33.53;;;18.95;;
1751;SDS011;873;47.696;8.068;2023-03-01T08:41:37;38.63;;;18.85;;
1751;SDS011;873;47.696;8.068;2023-03-01T08:44:03;34.27;;;17.77;;
1751;SDS011;873;47.696;8.068;2023-03-01T08:46:30;37.60;;;19.63;;
1751;SDS011;873;47.696;8.068;2023-03-01T08:48:59;32.92;;;17.63;;
1751;SDS011;873;47.696;8.068;2023-03-01T08:51:25;39.07;;;19.03;;
1751;SDS011;873;47.696;8.068;2023-03-01T08:53:51;40.17;;;20.02;;
1751;SDS011;873;47.696;8.068;2023-03-01T08:56:17;37.77;;;19.17;;
1751;SDS011;873;47.696;8.068;2023-03-01T08:58:44;38.03;;;19.20;;
1751;SDS011;873;47.696;8.068;2023-03-01T09:01:11;37.42;;;19.00;;
1751;SDS011;873;47.696;8.068;2023-03-01T09:03:37;32.50;;;18.17;;
1751;SDS011;873;47.696;8.068;2023-03-01T09:06:04;34.77;;;18.13;;
1751;SDS011;873;47.696;8.068;2023-03-01T09:08:31;40.25;;;18.85;;
1751;SDS011;873;47.696;8.068;2023-03-01T09:11:00;39.78;;;18.45;;
1751;SDS011;873;47.696;8.068;2023-03-01T09:13:28;34.13;;;18.52;;
1751;SDS011;873;47.696;8.068;2023-03-01T09:15:56;31.42;;;15.73;;
1751;SDS011;873;47.696;8.068;2023-03-01T09:18:22;37.30;;;19.00;;
1751;SDS011;873;47.696;8.068;2023-03-01T09:20:47;34.50;;;17.23;;
1751;SDS011;873;47.696;8.068;2023-03-01T09:23:13;37.33;;;16.90;;
1751;SDS011;873;47.696;8.068;2023-03-01T09:25:38;32.77;;;17.00;;
1751;SDS011;873;47.696;8.068;2023-03-01T09:28:04;33.03;;;17.77;;
1751;SDS011;873;47.696;8.068;2023-03-01T09:30:29;35.60;;;18.07;;
1751;SDS011;873;47.696;8.068;2023-03-01T09:32:56;31.17;;;17.23;;
1751;SDS011;873;47.696;8.068;2023-03-01T09:35:22;34.58;;;17.60;;
1751;SDS011;873;47.696;8.068;2023-03-01T09:37:48;33.85;;;17.55;;
1751;SDS011;873;47.696;8.068;2023-03-01T09:40:16;30.63;;;16.90;;
1751;SDS011;873;47.696;8.068;2023-03-01T09:45:30;35.75;;;18.00;;
1751;SDS011;873;47.696;8.068;2023-03-01T09:48:00;33.08;;;17.98;;
1751;SDS011;873;47.696;8.068;2023-03-01T09:50:28;29.92;;;15.57;;
1751;SDS011;873;47.696;8.068;2023-03-01T09:55:37;32.72;;;18.38;;
1751;SDS011;873;47.696;8.068;2023-03-01T10:00:49;29.55;;;17.13;;
1751;SDS011;873;47.696;8.068;2023-03-01T10:03:17;32.03;;;17.07;;
1751;SDS011;873;47.696;8.068;2023-03-01T10:05:59;30.50;;;16.73;;
1751;SDS011;873;47.696;8.068;2023-03-01T10:11:38;29.13;;;15.30;;
1751;SDS011;873;47.696;8.068;2023-03-01T10:17:05;29.75;;;16.40;;
1751;SDS011;873;47.696;8.068;2023-03-01T10:19:39;29.00;;;14.57;;
1751;SDS011;873;47.696;8.068;2023-03-01T10:24:59;28.85;;;15.52;;
1751;SDS011;873;47.696;8.068;2023-03-01T10:27:51;27.20;;;16.52;;
1751;SDS011;873;47.696;8.068;2023-03-01T10:30:17;33.53;;;17.65;;
1751;SDS011;873;47.696;8.068;2023-03-01T10:32:45;33.95;;;17.92;;
1751;SDS011;873;47.696;8.068;2023-03-01T10:35:16;28.67;;;15.82;;
1751;SDS011;873;47.696;8.068;2023-03-01T10:37:56;32.20;;;17.25;;
1751;SDS011;873;47.696;8.068;2023-03-01T10:40:31;31.33;;;17.17;;
1751;SDS011;873;47.696;8.068;2023-03-01T10:42:58;28.52;;;16.63;;
1751;SDS011;873;47.696;8.068;2023-03-01T10:48:25;29.10;;;16.45;;
1751;SDS011;873;47.696;8.068;2023-03-01T10:53:40;30.63;;;16.85;;
1751;SDS011;873;47.696;8.068;2023-03-01T10:56:09;29.63;;;17.20;;
1751;SDS011;873;47.696;8.068;2023-03-01T10:58:36;26.42;;;15.48;;
1751;SDS011;873;47.696;8.068;2023-03-01T11:01:04;29.50;;;16.40;;
1751;SDS011;873;47.696;8.068;2023-03-01T11:06:43;26.58;;;15.25;;
1751;SDS011;873;47.696;8.068;2023-03-01T11:09:24;25.33;;;15.63;;
1751;SDS011;873;47.696;8.068;2023-03-01T11:11:54;27.92;;;16.27;;
1751;SDS011;873;47.696;8.068;2023-03-01T11:14:22;27.30;;;15.93;;
1751;SDS011;873;47.696;8.068;2023-03-01T11:16:58;25.63;;;15.83;;
1751;SDS011;873;47.696;8.068;2023-03-01T11:19:26;26.17;;;15.70;;
1751;SDS011;873;47.696;8.068;2023-03-01T11:27:18;30.75;;;14.80;;
1751;SDS011;873;47.696;8.068;2023-03-01T11:29:57;27.67;;;14.95;;
1751;SDS011;873;47.696;8.068;2023-03-01T11:32:38;27.77;;;15.73;;
1751;SDS011;873;47.696;8.068;2023-03-01T11:35:10;24.13;;;14.43;;
1751;SDS011;873;47.696;8.068;2023-03-01T11:37:43;26.23;;;14.87;;
1751;SDS011;873;47.696;8.068;2023-03-01T11:46:01;23.30;;;13.73;;
1751;SDS011;873;47.696;8.068;2023-03-01T11:59:54;24.08;;;13.82;;
1751;SDS011;873;47.696;8.068;2023-03-01T12:10:22;23.17;;;14.50;;
1751;SDS011;873;47.696;8.068;2023-03-01T12:21:33;21.63;;;13.60;;
1751;SDS011;873;47.696;8.068;2023-03-01T12:24:21;27.00;;;14.00;;
1751;SDS011;873;47.696;8.068;2023-03-01T12:33:00;21.67;;;13.20;;
1751;SDS011;873;47.696;8.068;2023-03-01T12:35:39;18.90;;;12.30;;
1751;SDS011;873;47.696;8.068;2023-03-01T12:41:11;20.23;;;13.60;;
1751;SDS011;873;47.696;8.068;2023-03-01T12:49:22;21.17;;;12.80;;
1751;SDS011;873;47.696;8.068;2023-03-01T12:52:00;20.93;;;13.13;;
1751;SDS011;873;47.696;8.068;2023-03-01T12:54:30;21.37;;;13.57;;
1751;SDS011;873;47.696;8.068;2023-03-01T12:56:57;20.50;;;12.90;;
1751;SDS011;873;47.696;8.068;2023-03-01T12:59:34;22.40;;;13.60;;
1751;SDS011;873;47.696;8.068;2023-03-01T13:02:13;21.27;;;13.47;;
1751;SDS011;873;47.696;8.068;2023-03-01T13:05:02;22.13;;;13.50;;
1751;SDS011;873;47.696;8.068;2023-03-01T13:10:40;19.17;;;12.90;;
1751;SDS011;873;47.696;8.068;2023-03-01T13:13:13;21.97;;;12.73;;
1751;SDS011;873;47.696;8.068;2023-03-01T13:15:40;21.13;;;11.50;;
1751;SDS011;873;47.696;8.068;2023-03-01T13:31:55;21.20;;;13.50;;
1751;SDS011;873;47.696;8.068;2023-03-01T13:34:06;21.87;;;13.03;;
1751;SDS011;873;47.696;8.068;2023-03-01T13:37:10;19.13;;;12.40;;
1751;SDS011;873;47.696;8.068;2023-03-01T13:39:39;22.83;;;12.83;;
1751;SDS011;873;47.696;8.068;2023-03-01T13:42:28;18.37;;;13.00;;
1751;SDS011;873;47.696;8.068;2023-03-01T13:44:56;23.27;;;13.37;;
1751;SDS011;873;47.696;8.068;2023-03-01T13:47:22;19.00;;;12.07;;
1751;SDS011;873;47.696;8.068;2023-03-01T13:49:49;16.77;;;12.10;;
1751;SDS011;873;47.696;8.068;2023-03-01T13:55:14;21.27;;;12.23;;
1751;SDS011;873;47.696;8.068;2023-03-01T13:57:44;21.33;;;13.47;;
1751;SDS011;873;47.696;8.068;2023-03-01T14:00:29;19.60;;;12.73;;
1751;SDS011;873;47.696;8.068;2023-03-01T14:03:23;20.50;;;13.37;;
1751;SDS011;873;47.696;8.068;2023-03-01T14:08:40;21.03;;;14.23;;
1751;SDS011;873;47.696;8.068;2023-03-01T14:19:22;22.60;;;14.60;;
1751;SDS011;873;47.696;8.068;2023-03-01T14:22:04;21.13;;;13.80;;
1751;SDS011;873;47.696;8.068;2023-03-01T14:27:26;20.87;;;13.47;;
1751;SDS011;873;47.696;8.068;2023-03-01T14:29:55;19.93;;;13.73;;
1751;SDS011;873;47.696;8.068;2023-03-01T14:32:25;21.93;;;14.60;;
1751;SDS011;873;47.696;8.068;2023-03-01T14:34:53;24.10;;;15.30;;
1751;SDS011;873;47.696;8.068;2023-03-01T14:37:27;24.87;;;15.03;;
1751;SDS011;873;47.696;8.068;2023-03-01T14:39:57;22.20;;;15.13;;
1751;SDS011;873;47.696;8.068;2023-03-01T14:42:24;23.57;;;14.80;;
1751;SDS011;873;47.696;8.068;2023-03-01T14:44:53;23.20;;;15.00;;
1751;SDS011;873;47.696;8.068;2023-03-01T14:47:23;23.87;;;15.20;;
1751;SDS011;873;47.696;8.068;2023-03-01T14:49:54;21.87;;;14.53;;
1751;SDS011;873;47.696;8.068;2023-03-01T14:52:24;21.07;;;14.60;;
1751;SDS011;873;47.696;8.068;2023-03-01T14:54:54;25.97;;;15.13;;
1751;SDS011;873;47.696;8.068;2023-03-01T14:57:21;24.93;;;15.13;;
1751;SDS011;873;47.696;8.068;2023-03-01T14:59:48;25.27;;;16.10;;
1751;SDS011;873;47.696;8.068;2023-03-01T15:02:17;23.03;;;15.60;;
1751;SDS011;873;47.696;8.068;2023-03-01T15:04:46;25.03;;;15.77;;
1751;SDS011;873;47.696;8.068;2023-03-01T15:07:13;25.93;;;16.00;;
1751;SDS011;873;47.696;8.068;2023-03-01T15:09:39;25.63;;;15.33;;
1751;SDS011;873;47.696;8.068;2023-03-01T15:15:44;23.80;;;14.27;;
1751;SDS011;873;47.696;8.068;2023-03-01T15:18:16;27.27;;;15.53;;
1751;SDS011;873;47.696;8.068;2023-03-01T15:20:43;25.33;;;14.73;;
1751;SDS011;873;47.696;8.068;2023-03-01T15:23:18;23.17;;;15.20;;
1751;SDS011;873;47.696;8.068;2023-03-01T15:25:46;24.80;;;15.20;;
1751;SDS011;873;47.696;8.068;2023-03-01T15:28:16;26.63;;;15.67;;
1751;SDS011;873;47.696;8.068;2023-03-01T15:30:45;23.83;;;14.83;;
1751;SDS011;873;47.696;8.068;2023-03-01T15:35:56;25.77;;;15.33;;
1751;SDS011;873;47.696;8.068;2023-03-01T15:38:24;28.17;;;15.53;;
1751;SDS011;873;47.696;8.068;2023-03-01T15:41:02;23.83;;;14.70;;
1751;SDS011;873;47.696;8.068;2023-03-01T15:43:39;21.87;;;15.17;;
1751;SDS011;873;47.696;8.068;2023-03-01T15:46:24;30.03;;;16.70;;
1751;SDS011;873;47.696;8.068;2023-03-01T15:48:53;23.80;;;15.67;;
1751;SDS011;873;47.696;8.068;2023-03-01T15:51:22;27.10;;;15.07;;
1751;SDS011;873;47.696;8.068;2023-03-01T15:53:53;25.77;;;16.23;;
1751;SDS011;873;47.696;8.068;2023-03-01T15:56:19;24.67;;;15.33;;
1751;SDS011;873;47.696;8.068;2023-03-01T15:58:44;30.07;;;16.80;;
1751;SDS011;873;47.696;8.068;2023-03-01T16:01:13;27.67;;;14.67;;
1751;SDS011;873;47.696;8.068;2023-03-01T16:03:40;26.20;;;16.10;;
1751;SDS011;873;47.696;8.068;2023-03-01T16:06:05;26.37;;;16.00;;
1751;SDS011;873;47.696;8.068;2023-03-01T16:08:31;24.17;;;15.67;;
1751;SDS011;873;47.696;8.068;2023-03-01T16:10:56;25.60;;;15.60;;
1751;SDS011;873;47.696;8.068;2023-03-01T16:13:22;26.67;;;15.77;;
1751;SDS011;873;47.696;8.068;2023-03-01T16:15:48;25.17;;;15.40;;
1751;SDS011;873;47.696;8.068;2023-03-01T16:18:13;27.30;;;16.00;;
1751;SDS011;873;47.696;8.068;2023-03-01T16:20:39;25.50;;;15.03;;
1751;SDS011;873;47.696;8.068;2023-03-01T16:23:06;23.50;;;15.20;;
1751;SDS011;873;47.696;8.068;2023-03-01T16:25:32;27.10;;;16.20;;
1751;SDS011;873;47.696;8.068;2023-03-01T16:27:59;23.10;;;15.90;;
1751;SDS011;873;47.696;8.068;2023-03-01T16:30:29;27.47;;;16.30;;
1751;SDS011;873;47.696;8.068;2023-03-01T16:32:54;24.57;;;15.20;;
1751;SDS011;873;47.696;8.068;2023-03-01T16:35:20;26.80;;;15.60;;
1751;SDS011;873;47.696;8.068;2023-03-01T16:37:46;25.87;;;14.53;;
1751;SDS011;873;47.696;8.068;2023-03-01T16:40:18;25.77;;;14.80;;
1751;SDS011;873;47.696;8.068;2023-03-01T16:42:57;23.37;;;13.87;;
1751;SDS011;873;47.696;8.068;2023-03-01T16:45:25;25.47;;;16.17;;
1751;SDS011;873;47.696;8.068;2023-03-01T16:47:51;22.53;;;14.33;;
1751;SDS011;873;47.696;8.068;2023-03-01T16:50:17;27.50;;;15.90;;
1751;SDS011;873;47.696;8.068;2023-03-01T16:52:42;25.00;;;15.50;;
1751;SDS011;873;47.696;8.068;2023-03-01T16:55:08;27.17;;;15.87;;
1751;SDS011;873;47.696;8.068;2023-03-01T16:57:35;27.63;;;16.47;;
1751;SDS011;873;47.696;8.068;2023-03-01T17:00:02;25.10;;;14.93;;
1751;SDS011;873;47.696;8.068;2023-03-01T17:02:32;24.17;;;14.57;;
1751;SDS011;873;47.696;8.068;2023-03-01T17:04:58;29.77;;;15.80;;
1751;SDS011;873;47.696;8.068;2023-03-01T17:07:24;27.63;;;15.83;;
1751;SDS011;873;47.696;8.068;2023-03-01T17:09:49;27.37;;;14.20;;
1751;SDS011;873;47.696;8.068;2023-03-01T17:12:15;26.23;;;14.73;;
1751;SDS011;873;47.696;8.068;2023-03-01T17:14:41;24.83;;;14.20;;
1751;SDS011;873;47.696;8.068;2023-03-01T17:17:08;26.70;;;14.63;;